Aviation Digital Data Service (ADDS)

Output produced by METARs form (1403 UTC 10 July 2020)
found at http://www.aviationweather.gov/metar/data/
 
KDHN 101353Z 30007KT 10SM CLR 29/24 A3002 RMK AO2 SLP160 T02940239
KDHN 101120Z 1012/1112 29008KT P6SM BKN050 
     FM101800 31011KT P6SM VCTS SCT040CB 
     FM102100 30007KT P6SM SCT100 
     PROB30 1021/1024 5SM TSRA BKN100CB 
     FM110000 30004KT P6SM SCT200